Eviapetrol I — SY5401 — position and weather

sailwx.info

Track history (hours):
 
Tides and Currents Weather Stations Pressure Air Temp Water Temp Dewpoint Dewpoint Depression Visibility Wind Speed Wind Dir Waves Ship Positions

Eviapetrol I

Last reported at 2016-Jul-29 21:28 UTC. Time now 2016-Jul-30 01:58 UTC.
Position N 37°09' E 024°15'.

Length 75 m; draft 5 m.

Type: Tanker. MMSI: 240285000.

Date/timePositionNaut miles runAvg speedWind from/ knotsBaromVisibWave heightAir tempDewpointWater temp
2016-Jul-29 21:28N 37°09' E 024°15'1010.5
2016-Jul-29 20:33N 37°16' E 024°06'1010.2
2016-Jul-29 19:33N 37°23' E 023°57'10 9.6
2016-Jul-29 18:33N 37°30' E 023°49'9 9.3
2016-Jul-29 17:33N 37°38' E 023°43'10 9.9
2016-Jul-29 16:34N 37°47' E 023°38'1010.2
2016-Jul-29 15:34N 37°57' E 023°35'6 6.3
2016-Jul-29 14:33N 38°02' E 023°30'0 0.0
2016-Jul-29 13:33N 38°02' E 023°30'0 0.0
2016-Jul-29 12:33N 38°02' E 023°30'0 0.0
2016-Jul-29 11:33N 38°02' E 023°30'0 0.0
2016-Jul-29 10:33N 38°02' E 023°30'0 0.0
2016-Jul-29 09:33N 38°02' E 023°30'0 0.0
2016-Jul-29 08:33N 38°02' E 023°30'0 0.0
2016-Jul-29 07:33N 38°02' E 023°30'0 0.0
2016-Jul-29 06:33N 38°02' E 023°30'0 0.0
2016-Jul-29 05:33N 38°02' E 023°30'0 0.0
2016-Jul-29 04:33N 38°02' E 023°30'0 0.0
2016-Jul-29 03:33N 38°02' E 023°30'0 0.0
2016-Jul-29 02:33N 38°02' E 023°30'0 0.0
2016-Jul-29 01:33N 38°02' E 023°30'0 0.0
2016-Jul-29 00:33N 38°02' E 023°30'0 0.0
2016-Jul-28 23:33N 38°02' E 023°30'0 0.0
2016-Jul-28 22:33N 38°02' E 023°30'0 0.0
2016-Jul-28 21:33N 38°02' E 023°30'0 0.4
2016-Jul-28 20:33N 38°02' E 023°31'1 1.1
2016-Jul-28 19:32N 38°02' E 023°32'0 0.0
2016-Jul-28 18:32N 38°02' E 023°32'0 0.0
2016-Jul-28 17:32N 38°02' E 023°32'0 0.0
2016-Jul-28 16:32N 38°02' E 023°32'0 0.0
2016-Jul-28 15:32N 38°02' E 023°32'0 0.0
2016-Jul-28 14:32N 38°02' E 023°32'0 0.0
2016-Jul-28 13:32N 38°02' E 023°32'0 0.0
2016-Jul-28 12:32N 38°02' E 023°32'0 0.0
2016-Jul-28 11:32N 38°02' E 023°32'0 0.0
2016-Jul-28 10:32N 38°02' E 023°32'3 3.2
2016-Jul-28 09:33N 37°59' E 023°33'10 9.6
2016-Jul-28 08:33N 37°51' E 023°39'1110.7
2016-Jul-28 07:33N 37°41' E 023°45'1010.4
2016-Jul-28 06:33N 37°37' E 023°57'2010.1
2016-Jul-28 04:31N 37°46' E 024°21'1010.3
2016-Jul-28 03:33N 37°52' E 024°30'1111.0
2016-Jul-28 02:33N 38°01' E 024°40'  
2016-Jul-23 15:33N 37°21' E 023°60'10 9.8
2016-Jul-23 14:33N 37°28' E 023°51'10 9.8
2016-Jul-23 13:33N 37°36' E 023°45'10 9.7
2016-Jul-23 12:33N 37°45' E 023°39'10 9.7
2016-Jul-23 11:33N 37°54' E 023°36'8 8.2
2016-Jul-23 10:34N 38°02' E 023°32'1 1.1
2016-Jul-23 09:31N 38°02' E 023°30'0 0.0
2016-Jul-23 08:31N 38°02' E 023°30'0 0.0
2016-Jul-23 07:28N 38°02' E 023°30'0 0.0
2016-Jul-23 06:31N 38°02' E 023°30'0 0.0
2016-Jul-23 04:31N 38°02' E 023°30'0 0.0
2016-Jul-23 03:31N 38°02' E 023°30'0 0.0
2016-Jul-23 02:31N 38°02' E 023°30'0 0.0
2016-Jul-23 01:31N 38°02' E 023°30'0 0.0
2016-Jul-23 00:31N 38°02' E 023°30'0 0.0
2016-Jul-22 23:31N 38°02' E 023°30'0 0.0
2016-Jul-22 22:31N 38°02' E 023°30'0 0.0
2016-Jul-22 21:31N 38°02' E 023°30'0 0.0
2016-Jul-22 20:31N 38°02' E 023°30'0 0.0
2016-Jul-22 19:31N 38°02' E 023°30'0 0.0
2016-Jul-22 18:31N 38°02' E 023°30'0 0.0
2016-Jul-22 17:33N 38°02' E 023°30'4 4.1
2016-Jul-22 16:33N 38°02' E 023°36'0 0.1
2016-Jul-22 15:30N 38°02' E 023°36'0 0.0
2016-Jul-22 14:33N 38°02' E 023°36'0 0.0
2016-Jul-22 13:33N 38°02' E 023°36'0 0.0
2016-Jul-22 12:33N 38°02' E 023°36'0 0.0
2016-Jul-22 11:33N 38°02' E 023°36'0 0.0
2016-Jul-22 10:33N 38°02' E 023°36'0 0.0
2016-Jul-22 09:33N 38°02' E 023°36'0 0.0
2016-Jul-22 08:33N 38°02' E 023°36'3 2.5
2016-Jul-22 07:34N 38°01' E 023°33'19 9.6
2016-Jul-22 05:33N 37°44' E 023°43'1110.4
2016-Jul-22 04:33N 37°38' E 023°54'  
Track history (hours):
 
Tides and Currents Weather Stations Pressure Air Temp Water Temp Dewpoint Dewpoint Depression Visibility Wind Speed Wind Dir Waves Ship Positions

Eviapetrol I

Last reported at 2016-Jul-29 21:28 UTC. Time now 2016-Jul-30 01:58 UTC.
Position N 37°09' E 024°15'.

Length 75 m; draft 5 m.

Type: Tanker. MMSI: 240285000.

Date/timePositionNaut miles runAvg speedWind from/ knotsBaromVisibWave heightAir tempDewpointWater temp
2016-Jul-29 21:28N 37°09' E 024°15'1010.5
2016-Jul-29 20:33N 37°16' E 024°06'1010.2
2016-Jul-29 19:33N 37°23' E 023°57'10 9.6
2016-Jul-29 18:33N 37°30' E 023°49'9 9.3
2016-Jul-29 17:33N 37°38' E 023°43'10 9.9
2016-Jul-29 16:34N 37°47' E 023°38'1010.2
2016-Jul-29 15:34N 37°57' E 023°35'6 6.3
2016-Jul-29 14:33N 38°02' E 023°30'0 0.0
2016-Jul-29 13:33N 38°02' E 023°30'0 0.0
2016-Jul-29 12:33N 38°02' E 023°30'0 0.0
2016-Jul-29 11:33N 38°02' E 023°30'0 0.0
2016-Jul-29 10:33N 38°02' E 023°30'0 0.0
2016-Jul-29 09:33N 38°02' E 023°30'0 0.0
2016-Jul-29 08:33N 38°02' E 023°30'0 0.0
2016-Jul-29 07:33N 38°02' E 023°30'0 0.0
2016-Jul-29 06:33N 38°02' E 023°30'0 0.0
2016-Jul-29 05:33N 38°02' E 023°30'0 0.0
2016-Jul-29 04:33N 38°02' E 023°30'0 0.0
2016-Jul-29 03:33N 38°02' E 023°30'0 0.0
2016-Jul-29 02:33N 38°02' E 023°30'0 0.0
2016-Jul-29 01:33N 38°02' E 023°30'0 0.0
2016-Jul-29 00:33N 38°02' E 023°30'0 0.0
2016-Jul-28 23:33N 38°02' E 023°30'0 0.0
2016-Jul-28 22:33N 38°02' E 023°30'0 0.0
2016-Jul-28 21:33N 38°02' E 023°30'0 0.4
2016-Jul-28 20:33N 38°02' E 023°31'1 1.1
2016-Jul-28 19:32N 38°02' E 023°32'0 0.0
2016-Jul-28 18:32N 38°02' E 023°32'0 0.0
2016-Jul-28 17:32N 38°02' E 023°32'0 0.0
2016-Jul-28 16:32N 38°02' E 023°32'0 0.0
2016-Jul-28 15:32N 38°02' E 023°32'0 0.0
2016-Jul-28 14:32N 38°02' E 023°32'0 0.0
2016-Jul-28 13:32N 38°02' E 023°32'0 0.0
2016-Jul-28 12:32N 38°02' E 023°32'0 0.0
2016-Jul-28 11:32N 38°02' E 023°32'0 0.0
2016-Jul-28 10:32N 38°02' E 023°32'3 3.2
2016-Jul-28 09:33N 37°59' E 023°33'10 9.6
2016-Jul-28 08:33N 37°51' E 023°39'1110.7
2016-Jul-28 07:33N 37°41' E 023°45'1010.4
2016-Jul-28 06:33N 37°37' E 023°57'2010.1
2016-Jul-28 04:31N 37°46' E 024°21'1010.3
2016-Jul-28 03:33N 37°52' E 024°30'1111.0
2016-Jul-28 02:33N 38°01' E 024°40'  
2016-Jul-23 15:33N 37°21' E 023°60'10 9.8
2016-Jul-23 14:33N 37°28' E 023°51'10 9.8
2016-Jul-23 13:33N 37°36' E 023°45'10 9.7
2016-Jul-23 12:33N 37°45' E 023°39'10 9.7
2016-Jul-23 11:33N 37°54' E 023°36'8 8.2
2016-Jul-23 10:34N 38°02' E 023°32'1 1.1
2016-Jul-23 09:31N 38°02' E 023°30'0 0.0
2016-Jul-23 08:31N 38°02' E 023°30'0 0.0
2016-Jul-23 07:28N 38°02' E 023°30'0 0.0
2016-Jul-23 06:31N 38°02' E 023°30'0 0.0
2016-Jul-23 04:31N 38°02' E 023°30'0 0.0
2016-Jul-23 03:31N 38°02' E 023°30'0 0.0
2016-Jul-23 02:31N 38°02' E 023°30'0 0.0
2016-Jul-23 01:31N 38°02' E 023°30'0 0.0
2016-Jul-23 00:31N 38°02' E 023°30'0 0.0
2016-Jul-22 23:31N 38°02' E 023°30'0 0.0
2016-Jul-22 22:31N 38°02' E 023°30'0 0.0
2016-Jul-22 21:31N 38°02' E 023°30'0 0.0
2016-Jul-22 20:31N 38°02' E 023°30'0 0.0
2016-Jul-22 19:31N 38°02' E 023°30'0 0.0
2016-Jul-22 18:31N 38°02' E 023°30'0 0.0
2016-Jul-22 17:33N 38°02' E 023°30'4 4.1
2016-Jul-22 16:33N 38°02' E 023°36'0 0.1
2016-Jul-22 15:30N 38°02' E 023°36'0 0.0
2016-Jul-22 14:33N 38°02' E 023°36'0 0.0
2016-Jul-22 13:33N 38°02' E 023°36'0 0.0
2016-Jul-22 12:33N 38°02' E 023°36'0 0.0
2016-Jul-22 11:33N 38°02' E 023°36'0 0.0
2016-Jul-22 10:33N 38°02' E 023°36'0 0.0
2016-Jul-22 09:33N 38°02' E 023°36'0 0.0
2016-Jul-22 08:33N 38°02' E 023°36'3 2.5
2016-Jul-22 07:34N 38°01' E 023°33'19 9.6
2016-Jul-22 05:33N 37°44' E 023°43'1110.4
2016-Jul-22 04:33N 37°38' E 023°54'  

Dump ship's entire track history